Flight Track Log - Related Links

Times and Time Zones

All times are in EDT time to prevent confusion due to time zone crossing. See the CHH7748 flight status page for this flight to view local times or setup timezone preferences in your user account.

Time Position Orientation Groundspeed Altitude Reporting Facility
EDT Latitude Longitude Course Direction KTS MPH feet Rate Location/Type
Thu 11:34:00 PM 39.6086 76.1631 59° Northeast  Level Estimated
Thu 11:35:00 PM 39.6737 76.3059 59° Northeast  Level Estimated
Thu 11:36:00 PM 39.7387 76.4490 59° Northeast  Level Estimated
Thu 11:37:00 PM 39.8035 76.5923 59° Northeast  Level Estimated
Thu 11:38:00 PM 39.8681 76.7359 60° Northeast  Level Estimated
Thu 11:39:00 PM 39.9325 76.8798 60° Northeast  Level Estimated
Thu 11:40:00 PM 39.9968 77.0239 60° Northeast  Level Estimated
Thu 11:41:00 PM 40.0609 77.1683 60° Northeast  Level Estimated
Thu 11:42:00 PM 40.1248 77.3130 60° Northeast  Level Estimated
Thu 11:43:00 PM 40.1885 77.4580 60° Northeast  Level Estimated
Thu 11:44:00 PM 40.2520 77.6032 60° Northeast  Level Estimated
Thu 11:45:00 PM 40.3154 77.7487 60° Northeast  Level Estimated
Thu 11:46:00 PM 40.3786 77.8945 60° Northeast  Level Estimated
Thu 11:47:00 PM 40.4416 78.0405 60° Northeast  Level Estimated
Thu 11:48:00 PM 40.5044 78.1868 61° Northeast  Level Estimated
Thu 11:49:00 PM 40.5670 78.3334 61° Northeast  Level Estimated
Thu 11:50:00 PM 40.6295 78.4803 61° Northeast  Level Estimated
Thu 11:51:00 PM 40.6917 78.6274 61° Northeast  Level Estimated
Thu 11:52:00 PM 40.7538 78.7748 61° Northeast  Level Estimated
Thu 11:53:00 PM 40.8157 78.9225 61° Northeast  Level Estimated
Thu 11:54:00 PM 40.8773 79.0705 61° Northeast  Level Estimated
Thu 11:55:00 PM 40.9389 79.2187 61° Northeast  Level Estimated
Thu 11:56:00 PM 41.0002 79.3673 61° Northeast  Level Estimated
Thu 11:57:00 PM 41.0613 79.5161 61° Northeast  Level Estimated
Thu 11:58:00 PM 41.1222 79.6651 61° Northeast  Level Estimated
Thu 11:59:00 PM 41.1829 79.8145 62° Northeast  Level Estimated
Fri 12:00:00 AM 41.2435 79.9641 62° Northeast  Level Estimated
Fri 12:01:00 AM 41.3038 80.1140 62° Northeast  Level Estimated
Fri 12:02:00 AM 41.3640 80.2642 62° Northeast  Level Estimated
Fri 12:03:00 AM 41.4240 80.4146 62° Northeast  Level Estimated
Fri 12:04:00 AM 41.4837 80.5654 62° Northeast  Level Estimated
Fri 12:05:00 AM 41.5433 80.7164 62° Northeast  Level Estimated
Fri 12:06:00 AM 41.6026 80.8677 62° Northeast  Level Estimated
Fri 12:07:00 AM 41.6618 81.0192 62° Northeast  Level Estimated
Fri 12:08:00 AM 41.7200 81.1691 62° Northeast  Level Estimated
Fri 12:09:00 AM 41.7780 81.3192 63° Northeast  Level Estimated
Fri 12:10:00 AM 41.8358 81.4696 63° Northeast  Level Estimated
Fri 12:11:00 AM 41.8934 81.6202 63° Northeast  Level Estimated
Fri 12:12:00 AM 41.9508 81.7712 63° Northeast  Level Estimated
Fri 12:13:00 AM 42.0080 81.9224 63° Northeast  Level Estimated
Fri 12:14:00 AM 42.0650 82.0739 63° Northeast  Level Estimated
Fri 12:15:00 AM 42.1218 82.2256 63° Northeast  Level Estimated
Fri 12:16:00 AM 42.1785 82.3776 63° Northeast  Level Estimated
Fri 12:17:00 AM 42.2349 82.5299 63° Northeast  Level Estimated
Fri 12:18:00 AM 42.2911 82.6825 63° Northeast  Level Estimated
Fri 12:19:00 AM 42.3471 82.8353 64° Northeast  Level Estimated
Fri 12:20:00 AM 42.4029 82.9884 64° Northeast  Level Estimated
Fri 12:21:00 AM 42.4585 83.1418 64° Northeast  Level Estimated
Fri 12:22:00 AM 42.5139 83.2954 64° Northeast  Level Estimated
Fri 12:23:00 AM 42.5691 83.4494 64° Northeast  Level Estimated
Fri 12:24:00 AM 42.6241 83.6036 64° Northeast  Level Estimated
Fri 12:25:00 AM 42.6788 83.7580 64° Northeast  Level Estimated
Fri 12:26:00 AM 42.7334 83.9128 64° Northeast  Level Estimated
Fri 12:27:00 AM 42.7878 84.0678 64° Northeast  Level Estimated
Fri 12:28:00 AM 42.8419 84.2231 65° Northeast  Level Estimated
Fri 12:29:00 AM 42.8959 84.3786 65° Northeast  Level Estimated
Fri 12:30:00 AM 42.9496 84.5344 65° Northeast  Level Estimated
Fri 12:31:00 AM 43.0031 84.6905 65° Northeast  Level Estimated
Fri 12:32:00 AM 43.0564 84.8469 65° Northeast  Level Estimated
Fri 12:33:00 AM 43.1095 85.0035 65° Northeast  Level Estimated
Fri 12:34:00 AM 43.1624 85.1605 65° Northeast  Level Estimated
Fri 12:35:00 AM 43.2150 85.3176 65° Northeast  Level Estimated
Fri 12:36:00 AM 43.2675 85.4751 65° Northeast  Level Estimated
Fri 12:37:00 AM 43.3197 85.6328 65° Northeast  Level Estimated
Fri 12:38:00 AM 43.3717 85.7908 66° East  Level Estimated
Fri 12:39:00 AM 43.4235 85.9491 66° East  Level Estimated
Fri 12:40:00 AM 43.4751 86.1076 66° East  Level Estimated
Fri 12:41:00 AM 43.5265 86.2664 66° East  Level Estimated
Fri 12:42:00 AM 43.5776 86.4255 66° East  Level Estimated
Fri 12:43:00 AM 43.6285 86.5849 66° East  Level Estimated
Fri 12:44:00 AM 43.6792 86.7445 66° East  Level Estimated
Fri 12:45:00 AM 43.7297 86.9044 66° East  Level Estimated
Fri 12:46:00 AM 43.7799 87.0645 66° East  Level Estimated
Fri 12:47:00 AM 43.8300 87.2250 67° East  Level Estimated
Fri 12:48:00 AM 43.8798 87.3857 67° East  Level Estimated
Fri 12:49:00 AM 43.9071 87.4742 67° East  Level Estimated
Fri 12:50:00 AM 43.9071 87.4742 144° Southeast  Level Estimated
Fri 12:51:00 AM 43.9071 87.4742 144° Southeast  Level Estimated
Fri 12:52:00 AM 43.9071 87.4742 144° Southeast  Level Estimated
Fri 12:53:00 AM 43.9071 87.4742 144° Southeast  Level Estimated
Fri 12:54:00 AM 43.9071 87.4742 144° Southeast  Level Estimated
Fri 12:55:00 AM 43.9071 87.4742 144° Southeast  Level Estimated
Fri 12:56:00 AM 43.9071 87.4742 144° Southeast  Level Estimated
Fri 12:57:00 AM 43.9071 87.4742 144° Southeast  Level Estimated
Fri 12:58:00 AM 43.9071 87.4742 144° Southeast  Level Estimated
Fri 12:59:00 AM 43.9071 87.4742 144° Southeast  Level Estimated
Fri 01:00:00 AM 43.9071 87.4742 144° Southeast  Level Estimated
Fri 01:01:00 AM 43.9071 87.4742 144° Southeast  Level Estimated
Fri 01:02:00 AM 43.9071 87.4742 144° Southeast  Level Estimated
Fri 01:03:00 AM 43.9071 87.4742 144° Southeast  Level Estimated
Fri 01:04:00 AM 43.9071 87.4742 144° Southeast  Level Estimated
Fri 01:05:00 AM 43.9071 87.4742 144° Southeast  Level Estimated
Fri 01:06:00 AM 43.9071 87.4742 144° Southeast  Level Estimated

Login

Don't have an account? Register now (free) for customized features, flight alerts, and more!